Time;durP1;ratioP1;P1;durP2;ratioP2;P2;SDS_P1;SDS_P2;PMS_P1;PMS_P2;Temp;Humidity;BMP_temperature;BMP_pressure;BME280_temperature;BME280_humidity;BME280_pressure;Samples;Min_cycle;Max_cycle;Signal;HPM_P1;HPM_P2
2023/01/28 00:01:14;;;;;;;3.35;1.10;;;0.90;99.90;;;;;;5099482;28;25056;-72
2023/01/28 00:03:42;;;;;;;1.85;1.10;;;1.00;99.90;;;;;;5099286;28;25105;-72
2023/01/28 00:06:13;;;;;;;3.72;1.40;;;1.00;99.90;;;;;;5081440;28;25054;-72
2023/01/28 00:08:40;;;;;;;4.47;1.27;;;0.90;99.90;;;;;;5098806;28;25072;-72
2023/01/28 00:11:10;;;;;;;2.25;1.10;;;1.00;99.90;;;;;;5081925;28;25100;-72
2023/01/28 00:13:38;;;;;;;6.07;1.30;;;1.00;99.90;;;;;;5099164;28;25094;-72
2023/01/28 00:16:08;;;;;;;5.50;1.35;;;1.00;99.90;;;;;;5098828;28;25126;-72
2023/01/28 00:18:36;;;;;;;4.07;1.50;;;1.00;99.90;;;;;;5098660;28;25075;-71
2023/01/28 00:21:07;;;;;;;1.73;1.23;;;1.00;99.90;;;;;;5098775;28;25076;-72
2023/01/28 00:23:36;;;;;;;3.80;1.35;;;0.90;99.90;;;;;;5080663;28;25122;-71
2023/01/28 00:26:06;;;;;;;2.92;1.30;;;0.90;99.90;;;;;;5099184;28;25089;-72
2023/01/28 00:28:35;;;;;;;3.42;1.63;;;1.00;99.90;;;;;;5098351;28;25084;-72
2023/01/28 00:31:15;;;;;;;2.60;1.55;;;1.00;99.90;;;;;;5098962;28;25112;-72
2023/01/28 00:33:43;;;;;;;5.78;1.27;;;1.00;99.90;;;;;;5098385;28;25164;-72
2023/01/28 00:36:11;;;;;;;5.15;1.30;;;1.00;99.90;;;;;;5098333;28;25085;-72
2023/01/28 00:38:38;;;;;;;3.30;1.40;;;1.00;99.90;;;;;;5080317;28;25103;-72
2023/01/28 00:41:14;;;;;;;2.03;1.20;;;1.00;99.90;;;;;;5098477;28;25054;-72
2023/01/28 00:43:43;;;;;;;2.40;1.17;;;0.90;99.90;;;;;;5098061;28;25075;-72
2023/01/28 00:46:15;;;;;;;2.88;1.27;;;1.00;99.90;;;;;;5098367;28;25083;-72
2023/01/28 00:48:43;;;;;;;2.95;1.40;;;1.00;99.90;;;;;;5080072;28;25058;-71
2023/01/28 00:51:12;;;;;;;3.70;1.20;;;1.00;99.90;;;;;;5098381;28;25075;-72
2023/01/28 00:53:39;;;;;;;3.00;1.33;;;0.90;99.90;;;;;;5098063;28;25078;-72
2023/01/28 00:56:08;;;;;;;2.22;0.95;;;0.90;99.90;;;;;;5080642;28;25080;-72
2023/01/28 00:58:36;;;;;;;2.30;1.15;;;0.90;99.90;;;;;;5080003;28;25062;-72
2023/01/28 01:01:10;;;;;;;4.38;0.93;;;0.90;99.90;;;;;;5063299;28;25117;-72
2023/01/28 01:03:38;;;;;;;3.85;0.88;;;0.90;99.90;;;;;;5098661;28;25097;-71
2023/01/28 01:06:06;;;;;;;2.55;1.20;;;0.90;99.90;;;;;;5063386;28;25055;-72
2023/01/28 01:08:38;;;;;;;4.45;0.90;;;0.90;99.90;;;;;;5097890;28;25075;-72
2023/01/28 01:11:07;;;;;;;4.50;0.90;;;0.90;99.90;;;;;;5080852;28;25075;-72
2023/01/28 01:13:35;;;;;;;3.00;1.00;;;0.90;99.90;;;;;;5097657;28;25079;-72
2023/01/28 01:16:09;;;;;;;2.30;1.00;;;0.80;99.90;;;;;;5079786;28;25101;-72
2023/01/28 01:18:40;;;;;;;2.55;0.90;;;0.90;99.90;;;;;;5079607;28;25139;-72
2023/01/28 01:21:16;;;;;;;4.13;0.98;;;0.90;99.90;;;;;;5097337;28;25070;-72
2023/01/28 01:23:44;;;;;;;1.88;0.90;;;0.90;99.90;;;;;;5097383;28;25062;-72
2023/01/28 01:26:12;;;;;;;2.03;1.00;;;0.80;99.90;;;;;;5097889;28;25063;-72
2023/01/28 01:28:42;;;;;;;1.38;0.80;;;0.90;99.90;;;;;;5097308;28;25068;-72
2023/01/28 01:31:16;;;;;;;4.03;0.80;;;0.80;99.90;;;;;;5097285;28;25076;-72
2023/01/28 01:33:46;;;;;;;2.30;0.82;;;0.90;99.90;;;;;;5097237;28;25093;-71
2023/01/28 01:36:14;;;;;;;1.42;0.80;;;0.80;99.90;;;;;;5097396;28;25078;-71
2023/01/28 01:38:41;;;;;;;4.30;1.10;;;0.80;99.90;;;;;;5079156;28;25056;-72
2023/01/28 01:41:14;;;;;;;1.33;0.93;;;0.80;99.90;;;;;;5097040;28;25064;-72
2023/01/28 01:43:53;;;;;;;3.25;1.05;;;0.80;99.90;;;;;;5096235;28;25078;-72
2023/01/28 01:46:38;;;;;;;2.47;1.33;;;0.80;99.90;;;;;;5097732;28;25083;-71
2023/01/28 01:49:24;;;;;;;1.70;0.98;;;0.80;99.90;;;;;;5078984;28;25110;-72
2023/01/28 01:52:01;;;;;;;2.78;1.15;;;0.80;99.90;;;;;;5079269;28;25156;-72
2023/01/28 01:54:33;;;;;;;2.78;1.30;;;0.70;99.90;;;;;;5079632;28;25167;-72
2023/01/28 01:57:02;;;;;;;2.95;1.38;;;0.80;99.90;;;;;;5097447;28;25073;-71
2023/01/28 01:59:31;;;;;;;8.30;1.80;;;0.70;99.90;;;;;;5096764;28;25063;-72
2023/01/28 02:02:03;;;;;;;5.60;1.50;;;0.80;99.90;;;;;;5096805;28;25102;-72
2023/01/28 02:04:43;;;;;;;1.83;1.13;;;0.80;99.90;;;;;;5096790;28;25068;-72
2023/01/28 02:07:13;;;;;;;6.03;1.40;;;0.80;99.90;;;;;;5096613;28;25053;-72
2023/01/28 02:09:40;;;;;;;3.47;1.17;;;0.70;99.90;;;;;;5096875;28;25145;-72
2023/01/28 02:12:10;;;;;;;4.45;1.70;;;0.70;99.90;;;;;;5096689;28;25091;-72
2023/01/28 02:14:50;;;;;;;3.60;1.60;;;0.80;99.90;;;;;;5097202;28;25108;-72
2023/01/28 02:17:17;;;;;;;2.33;1.30;;;0.70;99.90;;;;;;5078655;28;25066;-72
2023/01/28 02:20:05;;;;;;;2.15;1.30;;;0.70;99.90;;;;;;5079553;28;25069;-72
2023/01/28 02:23:09;;;;;;;8.65;2.03;;;0.70;99.90;;;;;;5097047;28;25126;-72
2023/01/28 02:26:13;;;;;;;3.85;1.98;;;0.70;99.90;;;;;;5096533;28;25131;-72
2023/01/28 02:28:52;;;;;;;4.13;1.60;;;0.70;99.90;;;;;;5096388;28;25088;-72
2023/01/28 02:31:34;;;;;;;2.63;1.50;;;0.70;99.90;;;;;;5097150;28;25070;-72
2023/01/28 02:34:14;;;;;;;6.80;1.77;;;0.70;99.90;;;;;;5096433;28;25053;-72
2023/01/28 02:36:59;;;;;;;2.60;1.58;;;0.70;99.90;;;;;;5096922;28;25087;-71
2023/01/28 02:39:33;;;;;;;2.27;1.20;;;0.70;99.90;;;;;;5079012;28;25052;-72
2023/01/28 02:42:07;;;;;;;2.30;1.42;;;0.70;99.90;;;;;;5096100;28;25051;-72
2023/01/28 02:44:34;;;;;;;1.70;0.88;;;0.70;99.90;;;;;;5096365;28;25057;-72
2023/01/28 02:49:54;;;;;;;6.82;1.50;;;0.70;99.90;;;;;;5096449;28;25116;-72
2023/01/28 02:55:46;;;;;;;2.53;0.98;;;0.70;99.90;;;;;;5098499;28;25100;-72
2023/01/28 02:58:27;;;;;;;2.42;1.23;;;0.70;99.90;;;;;;5100266;28;25099;-72
2023/01/28 03:01:29;;;;;;;2.08;1.30;;;0.70;99.90;;;;;;5100686;28;25118;-72
2023/01/28 03:04:19;;;;;;;3.17;1.52;;;0.70;99.90;;;;;;5082193;28;25090;-72
2023/01/28 03:06:55;;;;;;;2.47;1.50;;;0.70;99.90;;;;;;5101229;28;25090;-72
2023/01/28 03:09:23;;;;;;;2.55;1.10;;;0.70;99.90;;;;;;5082180;28;25060;-72
2023/01/28 03:37:33;;;;;;;2.78;1.60;;;0.60;99.90;;;;;;5085040;28;25077;-72
2023/01/28 03:40:06;;;;;;;3.85;1.50;;;0.60;99.90;;;;;;5099435;28;25140;-72
2023/01/28 03:42:33;;;;;;;3.53;1.15;;;0.60;99.90;;;;;;5077888;28;25058;-71
2023/01/28 03:45:03;;;;;;;5.55;1.40;;;0.60;99.90;;;;;;5079705;28;25049;-71
2023/01/28 03:47:32;;;;;;;4.10;1.30;;;0.50;99.90;;;;;;5078939;28;25050;-72
2023/01/28 03:50:00;;;;;;;3.55;1.13;;;0.60;99.90;;;;;;5079142;28;25057;-72
2023/01/28 03:52:30;;;;;;;5.95;1.48;;;0.50;99.90;;;;;;5079514;28;25079;-72
2023/01/28 03:54:59;;;;;;;2.47;1.40;;;0.50;99.90;;;;;;5078953;28;25067;-71
2023/01/28 03:57:30;;;;;;;4.85;1.58;;;0.50;99.90;;;;;;5078932;28;25114;-72
2023/01/28 03:59:57;;;;;;;4.30;1.65;;;0.50;99.90;;;;;;5078968;28;25071;-72
2023/01/28 04:02:26;;;;;;;7.53;1.58;;;0.50;99.90;;;;;;5079415;28;25110;-72
2023/01/28 04:04:53;;;;;;;3.90;1.20;;;0.50;99.90;;;;;;5079174;28;25078;-72
2023/01/28 04:07:20;;;;;;;3.33;1.40;;;0.50;99.90;;;;;;5078384;28;25110;-72
2023/01/28 04:09:47;;;;;;;7.88;1.33;;;0.50;99.90;;;;;;5078813;28;25064;-71
2023/01/28 04:12:15;;;;;;;4.40;1.63;;;0.50;99.90;;;;;;5079192;28;25060;-72
2023/01/28 04:14:43;;;;;;;2.88;1.50;;;0.50;99.90;;;;;;5078227;28;25063;-72
2023/01/28 04:17:10;;;;;;;3.78;2.00;;;0.50;99.90;;;;;;5078500;28;25074;-72
2023/01/28 04:19:37;;;;;;;2.42;1.42;;;0.50;99.90;;;;;;5078925;28;25158;-72
2023/01/28 04:22:06;;;;;;;3.38;1.48;;;0.50;99.90;;;;;;5078497;28;25129;-71
2023/01/28 04:24:34;;;;;;;2.47;1.30;;;0.50;99.90;;;;;;5078379;28;25085;-71
2023/01/28 04:27:01;;;;;;;3.97;1.10;;;0.50;99.90;;;;;;5078915;28;25063;-72
2023/01/28 04:29:28;;;;;;;6.53;1.23;;;0.50;99.90;;;;;;5078961;28;25132;-71
2023/01/28 04:31:55;;;;;;;3.42;1.20;;;0.50;99.90;;;;;;5077225;28;25070;-72
2023/01/28 04:34:23;;;;;;;5.50;1.40;;;0.50;99.90;;;;;;5077049;28;25067;-72
2023/01/28 04:36:50;;;;;;;3.78;1.30;;;0.50;99.90;;;;;;5078186;28;25085;-72
2023/01/28 04:39:17;;;;;;;2.83;1.30;;;0.50;99.90;;;;;;5077033;28;25049;-72
2023/01/28 04:41:44;;;;;;;4.85;1.55;;;0.40;99.90;;;;;;5061119;28;25066;-72
2023/01/28 04:44:12;;;;;;;4.55;1.38;;;0.50;99.90;;;;;;5076897;28;25046;-71
2023/01/28 04:46:40;;;;;;;3.60;0.95;;;0.40;99.90;;;;;;5077898;28;25106;-72
2023/01/28 04:49:07;;;;;;;2.13;1.23;;;0.40;99.90;;;;;;5078572;28;25130;-72
2023/01/28 04:51:34;;;;;;;3.15;1.05;;;0.40;99.90;;;;;;5077818;28;25074;-71
2023/01/28 04:54:01;;;;;;;4.05;1.30;;;0.40;99.90;;;;;;5076774;28;25062;-71
2023/01/28 04:56:29;;;;;;;2.20;1.30;;;0.40;99.90;;;;;;5078306;28;25075;-71
2023/01/28 04:58:57;;;;;;;5.03;1.30;;;0.40;99.90;;;;;;5078191;28;25096;-71
2023/01/28 05:01:25;;;;;;;1.52;0.90;;;0.40;99.90;;;;;;5076570;28;25140;-72
2023/01/28 05:03:52;;;;;;;6.82;1.30;;;0.40;99.90;;;;;;5077973;28;25086;-72
2023/01/28 05:06:19;;;;;;;2.65;1.20;;;0.40;99.90;;;;;;5077589;28;25088;-72
2023/01/28 05:08:47;;;;;;;5.90;1.30;;;0.40;99.90;;;;;;5078204;28;25068;-71
2023/01/28 05:11:14;;;;;;;3.55;1.00;;;0.40;99.90;;;;;;5076401;28;25086;-72
2023/01/28 05:13:42;;;;;;;3.58;0.88;;;0.40;99.90;;;;;;5076402;28;25054;-72
2023/01/28 05:16:09;;;;;;;4.00;1.20;;;0.40;99.90;;;;;;5077319;28;25056;-72
2023/01/28 05:18:36;;;;;;;1.73;1.00;;;0.40;99.90;;;;;;5076570;28;25054;-72
2023/01/28 05:21:04;;;;;;;4.68;0.93;;;0.40;99.90;;;;;;5059627;28;25061;-72
2023/01/28 05:23:32;;;;;;;3.08;1.00;;;0.40;99.90;;;;;;5077228;28;25073;-71
2023/01/28 05:26:00;;;;;;;4.20;1.17;;;0.40;99.90;;;;;;5077241;28;25074;-72
2023/01/28 05:28:28;;;;;;;2.38;1.17;;;0.40;99.90;;;;;;5076002;28;25088;-72
2023/01/28 05:30:55;;;;;;;3.60;0.80;;;0.40;99.90;;;;;;5077240;28;25063;-72
2023/01/28 05:33:23;;;;;;;2.55;1.17;;;0.40;99.90;;;;;;5076977;28;25071;-72
2023/01/28 05:35:50;;;;;;;2.58;1.10;;;0.40;99.90;;;;;;5077037;28;25084;-72
2023/01/28 05:38:18;;;;;;;3.25;0.82;;;0.40;99.90;;;;;;5075861;28;25063;-72
2023/01/28 05:40:47;;;;;;;2.58;0.93;;;0.40;99.90;;;;;;5076171;28;25105;-71
2023/01/28 05:43:14;;;;;;;2.20;1.08;;;0.40;99.90;;;;;;5075570;28;25063;-72
2023/01/28 05:45:41;;;;;;;1.88;0.70;;;0.30;99.90;;;;;;5076843;28;25113;-72
2023/01/28 05:48:09;;;;;;;4.40;0.90;;;0.30;99.90;;;;;;5076466;28;25144;-72
2023/01/28 05:50:36;;;;;;;4.18;1.00;;;0.40;99.90;;;;;;5077513;28;25052;-72
2023/01/28 05:53:06;;;;;;;10.05;1.30;;;0.30;99.90;;;;;;5075742;28;25065;-72
2023/01/28 05:55:33;;;;;;;3.25;0.75;;;0.40;99.90;;;;;;5076720;28;25065;-71
2023/01/28 05:58:00;;;;;;;1.83;0.82;;;0.30;99.90;;;;;;5077180;28;25074;-72
2023/01/28 06:00:28;;;;;;;6.18;0.90;;;0.30;99.90;;;;;;5075522;28;25046;-71
2023/01/28 06:02:55;;;;;;;1.95;1.10;;;0.40;99.90;;;;;;5076744;28;25100;-72
2023/01/28 06:05:22;;;;;;;4.72;0.85;;;0.40;99.90;;;;;;5077150;28;25111;-72
2023/01/28 06:07:49;;;;;;;4.28;1.08;;;0.30;99.90;;;;;;5076690;28;25048;-72
2023/01/28 06:10:17;;;;;;;2.95;0.90;;;0.40;99.90;;;;;;5076280;28;25111;-72
2023/01/28 06:12:44;;;;;;;4.95;1.08;;;0.30;99.90;;;;;;5076762;28;25127;-72
2023/01/28 06:15:11;;;;;;;3.30;0.93;;;0.30;99.90;;;;;;5075365;28;25065;-72
2023/01/28 06:17:39;;;;;;;4.38;1.05;;;0.30;99.90;;;;;;5076672;28;25089;-72
2023/01/28 06:20:10;;;;;;;2.58;0.88;;;0.30;99.90;;;;;;5076405;28;25092;-72
2023/01/28 06:22:37;;;;;;;6.78;0.95;;;0.30;99.90;;;;;;5076270;28;25079;-71
2023/01/28 06:25:05;;;;;;;2.60;1.05;;;0.30;99.90;;;;;;5076894;28;25056;-72
2023/01/28 06:27:33;;;;;;;2.65;1.08;;;0.30;99.90;;;;;;5076231;28;25115;-72
2023/01/28 06:30:00;;;;;;;1.92;1.10;;;0.20;99.90;;;;;;5075240;28;25075;-72
2023/01/28 06:32:28;;;;;;;2.03;0.90;;;0.30;99.90;;;;;;5075184;28;25112;-72
2023/01/28 06:34:56;;;;;;;2.22;1.05;;;0.30;99.90;;;;;;5075190;28;25455;-71
2023/01/28 06:37:23;;;;;;;3.30;0.75;;;0.30;99.90;;;;;;5076170;28;25087;-71
2023/01/28 06:39:50;;;;;;;1.95;0.70;;;0.30;99.90;;;;;;5076892;28;25100;-71
2023/01/28 06:42:18;;;;;;;1.90;1.00;;;0.30;99.90;;;;;;5077288;28;25093;-72
2023/01/28 06:44:45;;;;;;;4.20;1.25;;;0.20;99.90;;;;;;5096367;28;25063;-72
2023/01/28 06:47:14;;;;;;;3.22;1.00;;;0.20;99.90;;;;;;5096807;28;25122;-72
2023/01/28 06:49:41;;;;;;;2.00;1.30;;;0.30;99.90;;;;;;5096212;28;25084;-71
2023/01/28 06:52:09;;;;;;;4.20;1.08;;;0.20;99.90;;;;;;5062416;28;25055;-72
2023/01/28 06:54:36;;;;;;;4.72;1.63;;;0.20;99.90;;;;;;5096146;28;25049;-71
2023/01/28 06:57:03;;;;;;;1.33;0.85;;;0.20;99.90;;;;;;5078268;28;25053;-72
2023/01/28 06:59:31;;;;;;;3.08;1.00;;;0.20;99.90;;;;;;5096337;28;25067;-71
2023/01/28 07:01:58;;;;;;;3.80;1.42;;;0.20;99.90;;;;;;5096106;28;25129;-73
2023/01/28 07:04:25;;;;;;;1.95;0.77;;;0.20;99.90;;;;;;5096026;28;25098;-74
2023/01/28 07:06:52;;;;;;;1.60;0.82;;;0.20;99.90;;;;;;5096134;28;25092;-71
2023/01/28 07:09:19;;;;;;;5.15;1.40;;;0.20;99.90;;;;;;5096525;28;25053;-76
2023/01/28 07:11:46;;;;;;;3.40;1.20;;;0.20;99.90;;;;;;5078033;28;25114;-73
2023/01/28 07:14:14;;;;;;;2.42;1.45;;;0.20;99.90;;;;;;5096603;28;25061;-73
2023/01/28 07:16:41;;;;;;;2.15;1.05;;;0.20;99.90;;;;;;5096279;28;25063;-73
2023/01/28 07:19:08;;;;;;;3.53;1.35;;;0.20;99.90;;;;;;5096042;28;25063;-77
2023/01/28 07:21:36;;;;;;;1.55;0.88;;;0.20;99.90;;;;;;5095990;28;25076;-78
2023/01/28 07:24:04;;;;;;;1.80;1.00;;;0.20;99.90;;;;;;5078175;28;25056;-78
2023/01/28 07:26:31;;;;;;;2.28;1.10;;;0.20;99.90;;;;;;5096244;28;25090;-76
2023/01/28 07:28:59;;;;;;;4.43;1.50;;;0.20;99.90;;;;;;5096140;28;25072;-75
2023/01/28 07:31:26;;;;;;;4.60;1.30;;;0.20;99.90;;;;;;5095893;28;25069;-76
2023/01/28 07:33:53;;;;;;;2.47;0.88;;;0.20;99.90;;;;;;5096071;28;25099;-74
2023/01/28 07:36:21;;;;;;;2.95;0.75;;;0.20;99.90;;;;;;5077883;28;25055;-74
2023/01/28 07:38:48;;;;;;;6.47;1.00;;;0.20;99.90;;;;;;5095868;28;25070;-77
2023/01/28 07:41:15;;;;;;;4.80;0.95;;;0.20;99.90;;;;;;5079599;28;25089;-75
2023/01/28 07:43:42;;;;;;;3.00;0.70;;;0.20;99.90;;;;;;5099361;28;25081;-77
2023/01/28 07:46:10;;;;;;;1.38;0.73;;;0.20;99.90;;;;;;5081376;28;25132;-76
2023/01/28 07:48:38;;;;;;;7.65;2.70;;;0.20;99.90;;;;;;5099296;28;25078;-75
2023/01/28 07:51:05;;;;;;;4.15;2.00;;;0.20;99.90;;;;;;5081294;28;25143;-74
2023/01/28 07:53:33;;;;;;;2.75;1.48;;;0.20;99.90;;;;;;5099143;28;25071;-74
2023/01/28 07:56:01;;;;;;;1.20;0.70;;;0.20;99.90;;;;;;5099628;28;25116;-74
2023/01/28 07:58:28;;;;;;;1.60;0.80;;;0.20;99.90;;;;;;5099166;28;25071;-75
2023/01/28 08:00:58;;;;;;;3.13;0.70;;;0.20;99.90;;;;;;5099449;28;25072;-74
2023/01/28 08:03:26;;;;;;;3.90;1.23;;;0.20;99.90;;;;;;5099561;28;25112;-75
2023/01/28 08:05:55;;;;;;;1.98;1.20;;;0.30;99.90;;;;;;5081225;28;25107;-75
2023/01/28 08:08:23;;;;;;;3.58;1.00;;;0.30;99.90;;;;;;5098840;28;25059;-72
2023/01/28 08:10:51;;;;;;;2.75;0.90;;;0.30;99.90;;;;;;5098884;28;25097;-73
2023/01/28 08:13:19;;;;;;;5.20;1.00;;;0.40;99.90;;;;;;5080832;28;25068;-73
2023/01/28 08:15:46;;;;;;;4.05;1.10;;;0.40;99.90;;;;;;5099526;28;25122;-71
2023/01/28 08:18:15;;;;;;;5.75;1.98;;;0.50;99.90;;;;;;5098755;28;25089;-71
2023/01/28 08:20:45;;;;;;;4.45;1.60;;;0.60;99.90;;;;;;5099273;28;25067;-72
2023/01/28 08:23:15;;;;;;;10.85;3.53;;;0.60;99.90;;;;;;5098624;28;25077;-71
2023/01/28 08:25:41;;;;;;;9.80;5.18;;;0.70;99.90;;;;;;5098902;28;25059;-72
2023/01/28 08:28:10;;;;;;;12.45;5.40;;;0.70;99.90;;;;;;5081213;28;25070;-72
2023/01/28 08:30:38;;;;;;;4.43;2.10;;;0.70;99.90;;;;;;5099018;28;25152;-72
2023/01/28 08:33:08;;;;;;;4.80;1.33;;;0.80;99.90;;;;;;5098591;28;25097;-73
2023/01/28 08:35:36;;;;;;;4.18;1.35;;;0.80;99.90;;;;;;5098692;28;25069;-72
2023/01/28 08:38:05;;;;;;;3.38;1.17;;;0.80;99.90;;;;;;5080358;28;25130;-75
2023/01/28 08:40:33;;;;;;;5.45;1.30;;;0.80;99.90;;;;;;5080461;28;25130;-71
2023/01/28 08:43:01;;;;;;;2.70;0.90;;;0.90;99.90;;;;;;5098084;28;25074;-71
2023/01/28 08:45:29;;;;;;;3.67;1.10;;;0.90;99.90;;;;;;5098408;28;25071;-71
2023/01/28 08:48:01;;;;;;;2.85;1.17;;;1.00;99.90;;;;;;5098307;28;25052;-71
2023/01/28 08:50:31;;;;;;;1.23;0.80;;;1.00;99.90;;;;;;5098652;28;25112;-73
2023/01/28 08:53:15;;;;;;;3.03;0.90;;;1.00;99.90;;;;;;5097736;28;25052;-73
2023/01/28 08:55:43;;;;;;;30.05;10.40;;;1.00;99.90;;;;;;5097945;28;25063;-73
2023/01/28 08:58:16;;;;;;;5.03;1.63;;;1.00;99.90;;;;;;5097936;28;25133;-72
2023/01/28 09:00:47;;;;;;;4.85;1.20;;;1.00;99.90;;;;;;5080045;28;25120;-72
2023/01/28 09:03:14;;;;;;;3.50;1.63;;;1.00;99.90;;;;;;5097818;28;25065;-73
2023/01/28 09:05:42;;;;;;;1.88;1.10;;;1.00;99.90;;;;;;5079695;28;25131;-73
2023/01/28 09:08:15;;;;;;;1.50;1.10;;;1.00;99.90;;;;;;5098004;28;25055;-74
2023/01/28 09:10:43;;;;;;;8.40;1.38;;;0.90;99.90;;;;;;5097764;28;25077;-75
2023/01/28 09:13:13;;;;;;;2.38;1.23;;;1.00;99.90;;;;;;5097532;28;25082;-76
2023/01/28 09:15:42;;;;;;;4.05;1.25;;;1.00;99.90;;;;;;5097803;28;25098;-78
2023/01/28 09:18:09;;;;;;;3.08;1.20;;;1.10;99.90;;;;;;5097509;28;25048;-75
2023/01/28 09:20:38;;;;;;;2.15;0.85;;;1.10;99.90;;;;;;5097664;28;25063;-75
2023/01/28 09:23:05;;;;;;;2.00;1.30;;;1.20;99.90;;;;;;5097552;28;25067;-75
2023/01/28 09:25:33;;;;;;;3.67;1.15;;;1.20;99.90;;;;;;5097466;28;25071;-75
2023/01/28 09:28:01;;;;;;;3.03;1.00;;;1.30;99.90;;;;;;5097544;28;25139;-75
2023/01/28 09:30:28;;;;;;;1.77;1.00;;;1.40;99.90;;;;;;5098053;28;25097;-75
2023/01/28 09:32:57;;;;;;;5.30;1.42;;;1.50;99.90;;;;;;5097643;28;25125;-74
2023/01/28 09:35:25;;;;;;;2.90;1.10;;;1.60;99.90;;;;;;5097213;28;25080;-75
2023/01/28 09:37:56;;;;;;;5.03;0.90;;;1.70;99.90;;;;;;5097199;28;25058;-75
2023/01/28 09:40:34;;;;;;;4.15;1.60;;;1.70;99.90;;;;;;5097233;28;25115;-76
2023/01/28 09:43:19;;;;;;;2.08;1.13;;;1.70;99.90;;;;;;5097004;28;25127;-75
2023/01/28 09:45:51;;;;;;;1.73;1.25;;;1.60;99.90;;;;;;5079063;28;25094;-75
2023/01/28 09:48:32;;;;;;;3.10;1.10;;;1.60;99.90;;;;;;5096933;28;25133;-74
2023/01/28 09:51:00;;;;;;;3.40;1.38;;;1.50;99.90;;;;;;5097216;28;25122;-76
2023/01/28 09:53:43;;;;;;;4.53;1.63;;;1.50;99.90;;;;;;5097135;28;25061;-75
2023/01/28 09:56:25;;;;;;;5.30;1.20;;;1.40;99.90;;;;;;5097146;28;25057;-75
2023/01/28 09:58:52;;;;;;;3.03;1.25;;;1.30;99.90;;;;;;5078890;28;25057;-75
2023/01/28 10:01:44;;;;;;;2.38;1.80;;;1.20;99.90;;;;;;5096712;28;25061;-74
2023/01/28 10:04:26;;;;;;;6.35;1.90;;;1.20;99.90;;;;;;5078448;28;25058;-73
2023/01/28 10:07:12;;;;;;;4.00;1.25;;;1.10;99.90;;;;;;5097024;28;25097;-74
2023/01/28 10:09:46;;;;;;;3.97;2.00;;;1.00;99.90;;;;;;5097458;28;25064;-74
2023/01/28 10:12:34;;;;;;;3.85;1.10;;;1.00;99.90;;;;;;5078682;28;25069;-75
2023/01/28 10:15:10;;;;;;;3.85;1.60;;;0.90;99.90;;;;;;5096829;28;25066;-76
2023/01/28 10:17:47;;;;;;;4.38;1.92;;;0.90;99.90;;;;;;5096872;28;25063;-76
2023/01/28 10:20:33;;;;;;;2.78;1.88;;;0.90;99.90;;;;;;5096636;28;25064;-75
2023/01/28 10:23:15;;;;;;;4.53;1.70;;;1.00;99.90;;;;;;5097079;28;25059;-75
2023/01/28 10:25:47;;;;;;;5.15;2.65;;;1.10;99.90;;;;;;5096483;28;25065;-77
2023/01/28 10:28:29;;;;;;;6.22;1.98;;;1.10;99.90;;;;;;5096483;28;25136;-74
2023/01/28 10:30:57;;;;;;;4.18;2.65;;;1.20;99.90;;;;;;5096472;28;25150;-74
2023/01/28 10:33:33;;;;;;;3.03;2.30;;;1.30;99.90;;;;;;5096629;28;25141;-73
2023/01/28 10:36:00;;;;;;;3.60;2.50;;;1.30;99.90;;;;;;5078490;28;25067;-74
2023/01/28 10:38:30;;;;;;;5.88;2.70;;;1.20;99.90;;;;;;5096406;28;25094;-74
2023/01/28 10:41:05;;;;;;;4.07;2.83;;;1.20;99.90;;;;;;5078490;28;25087;-74
2023/01/28 10:43:35;;;;;;;5.38;3.28;;;1.10;99.90;;;;;;5096514;28;25083;-74
2023/01/28 10:46:19;;;;;;;4.47;3.10;;;1.20;99.90;;;;;;5096345;28;25122;-73
2023/01/28 10:49:11;;;;;;;6.03;3.20;;;1.20;99.90;;;;;;5096855;28;25104;-73
2023/01/28 10:51:41;;;;;;;4.45;2.95;;;1.30;99.90;;;;;;5096265;28;25089;-74
2023/01/28 10:54:28;;;;;;;5.65;3.20;;;1.30;99.90;;;;;;5096723;28;25079;-74
2023/01/28 10:56:57;;;;;;;;;;;1.30;99.90;;;;;;5096633;28;25046;-74
2023/01/28 10:59:30;;;;;;;6.38;3.10;;;1.40;99.90;;;;;;5096537;28;24066;-74
2023/01/28 11:02:03;;;;;;;5.80;3.28;;;1.40;99.90;;;;;;5096276;28;25050;-73
2023/01/28 11:04:33;;;;;;;7.75;3.28;;;1.40;99.90;;;;;;5096326;28;25148;-76
2023/01/28 11:07:18;;;;;;;7.43;3.78;;;1.40;99.90;;;;;;5096705;28;25121;-75
2023/01/28 11:09:49;;;;;;;4.82;3.30;;;1.50;99.90;;;;;;5096326;28;25144;-75
2023/01/28 11:12:28;;;;;;;6.80;3.45;;;1.50;99.90;;;;;;5096107;28;25114;-75
2023/01/28 11:15:05;;;;;;;7.13;2.90;;;1.60;99.90;;;;;;5096223;28;25146;-75
2023/01/28 11:17:38;;;;;;;10.52;4.20;;;1.60;99.90;;;;;;5081945;28;25065;-75
2023/01/28 11:20:22;;;;;;;6.93;3.25;;;1.60;99.90;;;;;;5099896;28;25153;-75
2023/01/28 11:22:50;;;;;;;8.63;3.80;;;1.60;99.90;;;;;;5099847;28;25082;-75
2023/01/28 11:25:30;;;;;;;5.78;3.50;;;1.60;99.90;;;;;;5081953;28;25081;-75
2023/01/28 11:27:59;;;;;;;5.10;2.97;;;1.60;99.90;;;;;;5099678;28;25056;-75
2023/01/28 11:30:33;;;;;;;6.03;2.92;;;1.60;99.90;;;;;;5100196;28;25107;-75
2023/01/28 11:33:23;;;;;;;5.38;2.60;;;1.60;99.90;;;;;;5099679;28;25059;-75
2023/01/28 11:36:05;;;;;;;4.28;3.05;;;1.70;99.90;;;;;;5081586;28;25067;-75
2023/01/28 11:38:33;;;;;;;6.78;2.95;;;1.80;99.90;;;;;;5099587;28;25063;-75
2023/01/28 11:41:01;;;;;;;6.72;3.20;;;1.70;99.90;;;;;;5100077;28;25050;-75
2023/01/28 11:43:30;;;;;;;7.45;4.97;;;1.70;99.90;;;;;;5099731;28;25066;-75
2023/01/28 11:46:41;;;;;;;6.15;3.72;;;1.70;99.90;;;;;;5099629;28;25101;-76
2023/01/28 11:49:32;;;;;;;9.48;4.93;;;1.60;99.90;;;;;;5099301;28;25132;-80
2023/01/28 11:52:28;;;;;;;6.25;4.18;;;1.60;99.90;;;;;;5099878;28;25100;-73
2023/01/28 11:55:20;;;;;;;6.18;4.07;;;1.50;99.90;;;;;;5099494;28;25064;-74
2023/01/28 11:58:21;;;;;;;6.53;4.60;;;1.60;99.90;;;;;;5099500;28;25146;-76
2023/01/28 12:01:22;;;;;;;8.85;4.65;;;1.60;99.90;;;;;;5099123;28;25075;-74
2023/01/28 12:04:28;;;;;;;8.07;4.97;;;1.70;99.90;;;;;;5099229;28;25049;-74
2023/01/28 12:07:20;;;;;;;6.40;4.25;;;1.90;99.90;;;;;;5099301;28;25062;-76
2023/01/28 12:10:15;;;;;;;10.52;6.55;;;1.90;99.90;;;;;;5099180;28;25055;-74
2023/01/28 12:12:57;;;;;;;10.27;5.15;;;2.00;99.90;;;;;;5098925;28;25062;-74
2023/01/28 12:16:03;;;;;;;8.18;4.97;;;2.10;99.90;;;;;;5098878;28;25129;-74
2023/01/28 12:18:34;;;;;;;10.35;5.50;;;2.10;99.90;;;;;;5080861;28;25071;-74
2023/01/28 12:21:30;;;;;;;9.95;5.38;;;2.20;99.90;;;;;;5099024;28;25068;-75
2023/01/28 12:24:08;;;;;;;11.07;5.93;;;2.20;99.90;;;;;;5099028;28;25073;-73
2023/01/28 12:26:40;;;;;;;8.65;4.85;;;2.20;99.90;;;;;;5098485;28;25085;-74
2023/01/28 12:29:22;;;;;;;8.25;5.25;;;2.20;99.90;;;;;;5099223;28;25070;-73
2023/01/28 12:32:23;;;;;;;8.23;5.00;;;2.20;99.90;;;;;;5098771;28;25078;-75
2023/01/28 12:34:56;;;;;;;7.70;5.18;;;2.20;99.90;;;;;;5098601;28;25134;-74
2023/01/28 12:37:36;;;;;;;8.93;5.57;;;2.20;99.90;;;;;;5098677;28;25128;-74
2023/01/28 12:40:50;;;;;;;9.75;5.38;;;2.20;99.90;;;;;;5099055;28;25043;-74
2023/01/28 12:43:41;;;;;;;9.43;4.85;;;2.10;99.90;;;;;;5033794;28;25075;-74
2023/01/28 12:46:42;;;;;;;9.25;4.60;;;2.10;99.90;;;;;;5077853;28;25075;-74
2023/01/28 12:49:37;;;;;;;9.07;4.78;;;2.00;99.90;;;;;;5060360;28;25062;-74
2023/01/28 12:52:15;;;;;;;7.72;4.65;;;2.00;99.90;;;;;;5049985;28;25125;-74
2023/01/28 12:55:12;;;;;;;7.20;4.60;;;1.80;99.90;;;;;;5078385;28;25071;-74
2023/01/28 12:57:40;;;;;;;9.15;5.07;;;1.60;99.90;;;;;;5078099;28;25056;-78
2023/01/28 13:00:33;;;;;;;7.43;4.78;;;1.50;99.90;;;;;;5077911;28;25132;-77
2023/01/28 13:03:24;;;;;;;9.77;4.60;;;1.40;99.90;;;;;;5077675;28;25055;-77
2023/01/28 13:06:15;;;;;;;8.27;4.55;;;1.40;99.90;;;;;;5077900;28;25061;-75
2023/01/28 13:08:44;;;;;;;8.73;4.70;;;1.50;99.90;;;;;;5077968;28;25118;-77
2023/01/28 13:11:17;;;;;;;7.95;4.00;;;1.60;99.90;;;;;;5077362;28;25141;-76
2023/01/28 13:13:46;;;;;;;7.72;4.90;;;1.60;99.90;;;;;;5059733;28;25140;-76
2023/01/28 13:16:13;;;;;;;8.85;4.88;;;1.60;99.90;;;;;;5059638;28;25059;-77
2023/01/28 13:18:47;;;;;;;10.73;4.65;;;1.60;99.90;;;;;;5059845;28;25064;-77
2023/01/28 13:21:24;;;;;;;10.35;5.00;;;1.60;99.90;;;;;;5077590;28;25049;-77
2023/01/28 13:24:06;;;;;;;9.15;4.70;;;1.50;99.90;;;;;;5077637;28;25049;-77
2023/01/28 13:26:47;;;;;;;9.50;4.90;;;1.40;99.90;;;;;;5077468;28;25080;-77
2023/01/28 13:29:14;;;;;;;9.40;5.28;;;1.30;99.90;;;;;;5077600;28;25071;-77
2023/01/28 13:31:47;;;;;;;10.85;4.78;;;1.20;99.90;;;;;;5077369;28;25117;-77
2023/01/28 13:34:45;;;;;;;7.95;5.57;;;1.10;99.90;;;;;;5077057;28;25090;-76
2023/01/28 13:37:27;;;;;;;7.70;4.35;;;1.00;99.90;;;;;;5075894;28;25065;-75
2023/01/28 13:40:13;;;;;;;18.42;8.88;;;0.90;99.90;;;;;;5076664;28;25056;-76
2023/01/28 13:42:41;;;;;;;15.53;7.43;;;0.80;99.90;;;;;;5060326;28;25065;-76
2023/01/28 13:45:29;;;;;;;14.25;7.25;;;0.80;99.90;;;;;;5076866;28;25058;-76
2023/01/28 13:48:22;;;;;;;9.05;5.10;;;0.70;99.90;;;;;;5076762;28;25130;-76
2023/01/28 13:50:54;;;;;;;10.15;5.28;;;0.80;99.90;;;;;;5075933;28;25071;-76
2023/01/28 13:53:34;;;;;;;11.18;4.47;;;0.70;99.90;;;;;;5075917;28;25078;-76
2023/01/28 13:56:16;;;;;;;7.35;4.40;;;0.80;99.90;;;;;;5076977;28;25070;-76
2023/01/28 13:59:22;;;;;;;9.70;5.32;;;0.80;99.90;;;;;;5077343;28;25110;-77
2023/01/28 14:02:25;;;;;;;9.35;4.53;;;0.80;99.90;;;;;;5076046;28;25052;-75